sensor_id;sensor_type;location;lat;lon;timestamp;temperature;humidity
11239;DHT22;5677;48.488;13.436;2023-05-19T00:00:00;14.40;49.40
11239;DHT22;5677;48.488;13.436;2023-05-19T00:02:29;14.40;49.40
11239;DHT22;5677;48.488;13.436;2023-05-19T00:04:59;14.40;49.40
11239;DHT22;5677;48.488;13.436;2023-05-19T00:07:29;14.40;49.40
11239;DHT22;5677;48.488;13.436;2023-05-19T00:09:57;14.40;49.40
11239;DHT22;5677;48.488;13.436;2023-05-19T00:12:26;14.40;49.30
11239;DHT22;5677;48.488;13.436;2023-05-19T00:14:53;14.40;49.40
11239;DHT22;5677;48.488;13.436;2023-05-19T00:17:20;14.40;49.40
11239;DHT22;5677;48.488;13.436;2023-05-19T00:19:47;14.40;49.40
11239;DHT22;5677;48.488;13.436;2023-05-19T00:22:14;14.40;49.40
11239;DHT22;5677;48.488;13.436;2023-05-19T00:24:41;14.40;49.40
11239;DHT22;5677;48.488;13.436;2023-05-19T00:27:08;14.40;49.40
11239;DHT22;5677;48.488;13.436;2023-05-19T00:29:36;14.40;49.40
11239;DHT22;5677;48.488;13.436;2023-05-19T00:32:03;14.40;49.40
11239;DHT22;5677;48.488;13.436;2023-05-19T00:34:29;14.30;49.40
11239;DHT22;5677;48.488;13.436;2023-05-19T00:36:56;14.40;49.40
11239;DHT22;5677;48.488;13.436;2023-05-19T00:39:23;14.40;49.40
11239;DHT22;5677;48.488;13.436;2023-05-19T00:41:49;14.40;49.40
11239;DHT22;5677;48.488;13.436;2023-05-19T00:44:16;14.40;49.40
11239;DHT22;5677;48.488;13.436;2023-05-19T00:46:44;14.40;49.40
11239;DHT22;5677;48.488;13.436;2023-05-19T00:49:11;14.40;49.40
11239;DHT22;5677;48.488;13.436;2023-05-19T00:51:38;14.40;49.40
11239;DHT22;5677;48.488;13.436;2023-05-19T00:54:06;14.40;49.40
11239;DHT22;5677;48.488;13.436;2023-05-19T00:56:33;14.40;49.40
11239;DHT22;5677;48.488;13.436;2023-05-19T00:59:00;14.40;49.40
11239;DHT22;5677;48.488;13.436;2023-05-19T01:01:27;14.40;49.50
11239;DHT22;5677;48.488;13.436;2023-05-19T01:03:55;14.40;49.40
11239;DHT22;5677;48.488;13.436;2023-05-19T01:06:23;14.40;49.50
11239;DHT22;5677;48.488;13.436;2023-05-19T01:08:52;14.40;49.40
11239;DHT22;5677;48.488;13.436;2023-05-19T01:11:19;14.30;49.40
11239;DHT22;5677;48.488;13.436;2023-05-19T01:13:46;14.40;49.40
11239;DHT22;5677;48.488;13.436;2023-05-19T01:16:20;14.30;49.50
11239;DHT22;5677;48.488;13.436;2023-05-19T01:18:53;14.30;49.50
11239;DHT22;5677;48.488;13.436;2023-05-19T01:21:58;14.30;49.50
11239;DHT22;5677;48.488;13.436;2023-05-19T01:24:48;14.30;49.50
11239;DHT22;5677;48.488;13.436;2023-05-19T01:27:45;14.30;49.50
11239;DHT22;5677;48.488;13.436;2023-05-19T01:30:24;14.30;49.50
11239;DHT22;5677;48.488;13.436;2023-05-19T01:32:53;14.30;49.50
11239;DHT22;5677;48.488;13.436;2023-05-19T01:35:22;14.30;49.50
11239;DHT22;5677;48.488;13.436;2023-05-19T01:37:50;14.30;49.50
11239;DHT22;5677;48.488;13.436;2023-05-19T01:40:18;14.30;49.50
11239;DHT22;5677;48.488;13.436;2023-05-19T01:42:47;14.30;49.40
11239;DHT22;5677;48.488;13.436;2023-05-19T01:45:14;14.30;49.50
11239;DHT22;5677;48.488;13.436;2023-05-19T01:47:46;14.30;49.50
11239;DHT22;5677;48.488;13.436;2023-05-19T01:50:14;14.30;49.50
11239;DHT22;5677;48.488;13.436;2023-05-19T01:52:40;14.30;49.50
11239;DHT22;5677;48.488;13.436;2023-05-19T01:55:08;14.30;49.50
11239;DHT22;5677;48.488;13.436;2023-05-19T01:57:42;14.30;49.50
11239;DHT22;5677;48.488;13.436;2023-05-19T02:00:15;14.30;49.50
11239;DHT22;5677;48.488;13.436;2023-05-19T02:02:55;14.30;49.50
11239;DHT22;5677;48.488;13.436;2023-05-19T02:05:33;14.30;49.50
11239;DHT22;5677;48.488;13.436;2023-05-19T02:08:05;14.30;49.50
11239;DHT22;5677;48.488;13.436;2023-05-19T02:10:40;14.30;49.50
11239;DHT22;5677;48.488;13.436;2023-05-19T02:13:10;14.30;49.50
11239;DHT22;5677;48.488;13.436;2023-05-19T02:15:40;14.30;49.50
11239;DHT22;5677;48.488;13.436;2023-05-19T02:18:10;14.30;49.50
11239;DHT22;5677;48.488;13.436;2023-05-19T02:20:37;14.30;49.50
11239;DHT22;5677;48.488;13.436;2023-05-19T02:23:04;14.30;49.50
11239;DHT22;5677;48.488;13.436;2023-05-19T02:25:31;14.30;49.50
11239;DHT22;5677;48.488;13.436;2023-05-19T02:27:58;14.30;49.50
11239;DHT22;5677;48.488;13.436;2023-05-19T02:30:24;14.30;49.50
11239;DHT22;5677;48.488;13.436;2023-05-19T02:32:51;14.30;49.50
11239;DHT22;5677;48.488;13.436;2023-05-19T02:35:20;14.30;49.50
11239;DHT22;5677;48.488;13.436;2023-05-19T02:37:46;14.30;49.50
11239;DHT22;5677;48.488;13.436;2023-05-19T02:40:13;14.30;49.50
11239;DHT22;5677;48.488;13.436;2023-05-19T02:42:40;14.20;49.40
11239;DHT22;5677;48.488;13.436;2023-05-19T02:45:07;14.30;49.50
11239;DHT22;5677;48.488;13.436;2023-05-19T02:47:34;14.30;49.50
11239;DHT22;5677;48.488;13.436;2023-05-19T02:50:01;14.30;49.60
11239;DHT22;5677;48.488;13.436;2023-05-19T02:52:29;14.30;49.50
11239;DHT22;5677;48.488;13.436;2023-05-19T02:54:55;14.30;49.50
11239;DHT22;5677;48.488;13.436;2023-05-19T02:57:23;14.20;49.40
11239;DHT22;5677;48.488;13.436;2023-05-19T02:59:51;14.30;49.50
11239;DHT22;5677;48.488;13.436;2023-05-19T03:02:17;14.20;49.50
11239;DHT22;5677;48.488;13.436;2023-05-19T03:04:44;14.30;49.60
11239;DHT22;5677;48.488;13.436;2023-05-19T03:07:11;14.30;49.50
11239;DHT22;5677;48.488;13.436;2023-05-19T03:09:41;14.30;49.50
11239;DHT22;5677;48.488;13.436;2023-05-19T03:12:07;14.20;49.40
11239;DHT22;5677;48.488;13.436;2023-05-19T03:14:35;14.20;49.40
11239;DHT22;5677;48.488;13.436;2023-05-19T03:17:03;14.20;49.50
11239;DHT22;5677;48.488;13.436;2023-05-19T03:19:32;14.30;49.50
11239;DHT22;5677;48.488;13.436;2023-05-19T03:21:58;14.20;49.40
11239;DHT22;5677;48.488;13.436;2023-05-19T03:24:25;14.30;49.60
11239;DHT22;5677;48.488;13.436;2023-05-19T03:26:53;14.20;49.50
11239;DHT22;5677;48.488;13.436;2023-05-19T03:29:20;14.20;49.50
11239;DHT22;5677;48.488;13.436;2023-05-19T03:31:46;14.30;49.60
11239;DHT22;5677;48.488;13.436;2023-05-19T03:34:13;14.20;50.10
11239;DHT22;5677;48.488;13.436;2023-05-19T03:36:40;14.20;49.50
11239;DHT22;5677;48.488;13.436;2023-05-19T03:39:07;14.30;49.50
11239;DHT22;5677;48.488;13.436;2023-05-19T03:41:34;14.30;49.60
11239;DHT22;5677;48.488;13.436;2023-05-19T03:44:02;14.20;49.50
11239;DHT22;5677;48.488;13.436;2023-05-19T03:46:28;14.30;50.20
11239;DHT22;5677;48.488;13.436;2023-05-19T03:48:55;14.30;49.50
11239;DHT22;5677;48.488;13.436;2023-05-19T03:51:22;14.30;49.60
11239;DHT22;5677;48.488;13.436;2023-05-19T03:53:48;14.20;49.50
11239;DHT22;5677;48.488;13.436;2023-05-19T03:56:16;14.30;49.60
11239;DHT22;5677;48.488;13.436;2023-05-19T03:58:43;14.20;49.50
11239;DHT22;5677;48.488;13.436;2023-05-19T04:01:12;14.20;49.50
11239;DHT22;5677;48.488;13.436;2023-05-19T04:03:39;14.20;49.40
11239;DHT22;5677;48.488;13.436;2023-05-19T04:06:06;14.20;49.50
11239;DHT22;5677;48.488;13.436;2023-05-19T04:08:33;14.30;49.60
11239;DHT22;5677;48.488;13.436;2023-05-19T04:11:00;14.20;49.50
11239;DHT22;5677;48.488;13.436;2023-05-19T04:13:26;14.30;49.50
11239;DHT22;5677;48.488;13.436;2023-05-19T04:15:53;14.20;49.40
11239;DHT22;5677;48.488;13.436;2023-05-19T04:18:21;14.30;49.60
11239;DHT22;5677;48.488;13.436;2023-05-19T04:20:48;14.20;49.40
11239;DHT22;5677;48.488;13.436;2023-05-19T04:23:15;14.30;49.60
11239;DHT22;5677;48.488;13.436;2023-05-19T04:25:42;14.30;49.50
11239;DHT22;5677;48.488;13.436;2023-05-19T04:28:09;14.20;49.50
11239;DHT22;5677;48.488;13.436;2023-05-19T04:30:35;14.30;49.60
11239;DHT22;5677;48.488;13.436;2023-05-19T04:33:03;14.30;49.60
11239;DHT22;5677;48.488;13.436;2023-05-19T04:35:31;14.30;49.50
11239;DHT22;5677;48.488;13.436;2023-05-19T04:37:57;14.30;49.60
11239;DHT22;5677;48.488;13.436;2023-05-19T04:40:26;14.20;49.40
11239;DHT22;5677;48.488;13.436;2023-05-19T04:42:55;14.30;49.50
11239;DHT22;5677;48.488;13.436;2023-05-19T04:45:22;14.30;49.50
11239;DHT22;5677;48.488;13.436;2023-05-19T04:47:50;14.30;49.50
11239;DHT22;5677;48.488;13.436;2023-05-19T04:50:17;14.30;49.50
11239;DHT22;5677;48.488;13.436;2023-05-19T04:52:45;14.20;49.40
11239;DHT22;5677;48.488;13.436;2023-05-19T04:55:11;14.20;49.40
11239;DHT22;5677;48.488;13.436;2023-05-19T04:57:38;14.30;49.50
11239;DHT22;5677;48.488;13.436;2023-05-19T05:00:06;14.30;49.50
11239;DHT22;5677;48.488;13.436;2023-05-19T05:02:36;14.30;49.40
11239;DHT22;5677;48.488;13.436;2023-05-19T05:05:03;14.30;49.40
11239;DHT22;5677;48.488;13.436;2023-05-19T05:07:30;14.30;49.40
11239;DHT22;5677;48.488;13.436;2023-05-19T05:09:58;14.30;49.40
11239;DHT22;5677;48.488;13.436;2023-05-19T05:12:25;14.30;49.40
11239;DHT22;5677;48.488;13.436;2023-05-19T05:14:53;14.30;49.40
11239;DHT22;5677;48.488;13.436;2023-05-19T05:17:20;14.30;49.40
11239;DHT22;5677;48.488;13.436;2023-05-19T05:19:47;14.30;49.40
11239;DHT22;5677;48.488;13.436;2023-05-19T05:22:15;14.30;49.30
11239;DHT22;5677;48.488;13.436;2023-05-19T05:24:42;14.30;49.40
11239;DHT22;5677;48.488;13.436;2023-05-19T05:27:10;14.30;49.30
11239;DHT22;5677;48.488;13.436;2023-05-19T05:29:37;14.30;49.30
11239;DHT22;5677;48.488;13.436;2023-05-19T05:32:04;14.30;49.30
11239;DHT22;5677;48.488;13.436;2023-05-19T05:34:32;14.30;50.00
11239;DHT22;5677;48.488;13.436;2023-05-19T05:37:00;14.30;49.30
11239;DHT22;5677;48.488;13.436;2023-05-19T05:39:26;14.30;49.30
11239;DHT22;5677;48.488;13.436;2023-05-19T05:41:53;14.30;49.30
11239;DHT22;5677;48.488;13.436;2023-05-19T05:44:21;14.30;49.30
11239;DHT22;5677;48.488;13.436;2023-05-19T05:46:48;14.30;49.30
11239;DHT22;5677;48.488;13.436;2023-05-19T05:49:15;14.30;49.40
11239;DHT22;5677;48.488;13.436;2023-05-19T05:51:43;14.30;49.30
11239;DHT22;5677;48.488;13.436;2023-05-19T05:54:11;14.30;49.30
11239;DHT22;5677;48.488;13.436;2023-05-19T05:56:38;14.30;49.30
11239;DHT22;5677;48.488;13.436;2023-05-19T05:59:05;14.30;49.30
11239;DHT22;5677;48.488;13.436;2023-05-19T06:01:33;14.30;49.30
11239;DHT22;5677;48.488;13.436;2023-05-19T06:04:01;14.30;49.30
11239;DHT22;5677;48.488;13.436;2023-05-19T06:06:27;14.30;49.30
11239;DHT22;5677;48.488;13.436;2023-05-19T06:08:54;14.30;49.30
11239;DHT22;5677;48.488;13.436;2023-05-19T06:11:21;14.30;49.30
11239;DHT22;5677;48.488;13.436;2023-05-19T06:13:47;14.30;49.30
11239;DHT22;5677;48.488;13.436;2023-05-19T06:16:14;14.30;49.30
11239;DHT22;5677;48.488;13.436;2023-05-19T06:18:42;14.30;49.30
11239;DHT22;5677;48.488;13.436;2023-05-19T06:21:09;14.30;49.30
11239;DHT22;5677;48.488;13.436;2023-05-19T06:23:37;14.30;49.30
11239;DHT22;5677;48.488;13.436;2023-05-19T06:26:04;14.30;49.30
11239;DHT22;5677;48.488;13.436;2023-05-19T06:28:31;14.30;49.30
11239;DHT22;5677;48.488;13.436;2023-05-19T06:30:58;14.30;49.90
11239;DHT22;5677;48.488;13.436;2023-05-19T06:33:25;14.30;49.30
11239;DHT22;5677;48.488;13.436;2023-05-19T06:35:53;14.30;49.30
11239;DHT22;5677;48.488;13.436;2023-05-19T06:38:20;14.30;49.30
11239;DHT22;5677;48.488;13.436;2023-05-19T06:40:47;14.30;49.30
11239;DHT22;5677;48.488;13.436;2023-05-19T06:43:13;14.40;49.30
11239;DHT22;5677;48.488;13.436;2023-05-19T06:45:40;14.30;49.30
11239;DHT22;5677;48.488;13.436;2023-05-19T06:48:07;14.40;49.20
11239;DHT22;5677;48.488;13.436;2023-05-19T06:50:33;14.40;49.30
11239;DHT22;5677;48.488;13.436;2023-05-19T06:53:01;14.40;49.20
11239;DHT22;5677;48.488;13.436;2023-05-19T06:55:28;14.40;49.20
11239;DHT22;5677;48.488;13.436;2023-05-19T06:57:55;14.40;49.20
11239;DHT22;5677;48.488;13.436;2023-05-19T07:00:22;14.40;49.20
11239;DHT22;5677;48.488;13.436;2023-05-19T07:02:49;14.40;49.10
11239;DHT22;5677;48.488;13.436;2023-05-19T07:05:16;14.30;49.10
11239;DHT22;5677;48.488;13.436;2023-05-19T07:07:42;14.40;49.10
11239;DHT22;5677;48.488;13.436;2023-05-19T07:10:11;14.40;49.10
11239;DHT22;5677;48.488;13.436;2023-05-19T07:12:37;14.30;49.10
11239;DHT22;5677;48.488;13.436;2023-05-19T07:15:05;14.40;49.10
11239;DHT22;5677;48.488;13.436;2023-05-19T07:17:32;14.40;49.00
11239;DHT22;5677;48.488;13.436;2023-05-19T07:19:59;14.40;49.10
11239;DHT22;5677;48.488;13.436;2023-05-19T07:22:26;14.40;49.00
11239;DHT22;5677;48.488;13.436;2023-05-19T07:24:53;14.40;49.10
11239;DHT22;5677;48.488;13.436;2023-05-19T07:27:22;14.40;49.10
11239;DHT22;5677;48.488;13.436;2023-05-19T07:29:49;14.40;49.10
11239;DHT22;5677;48.488;13.436;2023-05-19T07:32:16;14.40;49.10
11239;DHT22;5677;48.488;13.436;2023-05-19T07:34:42;14.40;49.10
11239;DHT22;5677;48.488;13.436;2023-05-19T07:37:09;14.40;49.10
11239;DHT22;5677;48.488;13.436;2023-05-19T07:39:36;14.40;49.10
11239;DHT22;5677;48.488;13.436;2023-05-19T07:42:03;14.40;49.10
11239;DHT22;5677;48.488;13.436;2023-05-19T07:44:31;14.30;49.10
11239;DHT22;5677;48.488;13.436;2023-05-19T07:46:59;14.40;49.10
11239;DHT22;5677;48.488;13.436;2023-05-19T07:49:26;14.40;49.00
11239;DHT22;5677;48.488;13.436;2023-05-19T07:51:53;14.40;49.00
11239;DHT22;5677;48.488;13.436;2023-05-19T07:54:20;14.40;49.00
11239;DHT22;5677;48.488;13.436;2023-05-19T07:56:47;14.40;49.10
11239;DHT22;5677;48.488;13.436;2023-05-19T07:59:13;14.40;49.00
11239;DHT22;5677;48.488;13.436;2023-05-19T08:01:41;14.40;49.00
11239;DHT22;5677;48.488;13.436;2023-05-19T08:04:09;14.40;49.00
11239;DHT22;5677;48.488;13.436;2023-05-19T08:06:36;14.40;49.00
11239;DHT22;5677;48.488;13.436;2023-05-19T08:09:03;14.40;49.00
11239;DHT22;5677;48.488;13.436;2023-05-19T08:11:30;14.40;49.00
11239;DHT22;5677;48.488;13.436;2023-05-19T08:13:57;14.40;49.00
11239;DHT22;5677;48.488;13.436;2023-05-19T08:16:24;14.40;49.00
11239;DHT22;5677;48.488;13.436;2023-05-19T08:18:54;14.40;49.00
11239;DHT22;5677;48.488;13.436;2023-05-19T08:21:21;14.40;49.00
11239;DHT22;5677;48.488;13.436;2023-05-19T08:23:48;14.40;49.00
11239;DHT22;5677;48.488;13.436;2023-05-19T08:26:14;14.40;49.00
11239;DHT22;5677;48.488;13.436;2023-05-19T08:28:41;14.40;49.00
11239;DHT22;5677;48.488;13.436;2023-05-19T08:31:08;14.40;49.00
11239;DHT22;5677;48.488;13.436;2023-05-19T08:33:35;14.40;48.90
11239;DHT22;5677;48.488;13.436;2023-05-19T08:36:03;14.40;48.90
11239;DHT22;5677;48.488;13.436;2023-05-19T08:38:30;14.40;49.00
11239;DHT22;5677;48.488;13.436;2023-05-19T08:40:57;14.40;49.00
11239;DHT22;5677;48.488;13.436;2023-05-19T08:43:24;14.50;49.10
11239;DHT22;5677;48.488;13.436;2023-05-19T08:45:52;14.50;49.00
11239;DHT22;5677;48.488;13.436;2023-05-19T08:48:19;14.50;49.00
11239;DHT22;5677;48.488;13.436;2023-05-19T08:50:50;14.50;49.00
11239;DHT22;5677;48.488;13.436;2023-05-19T08:53:21;14.50;49.00
11239;DHT22;5677;48.488;13.436;2023-05-19T08:55:54;14.50;49.00
11239;DHT22;5677;48.488;13.436;2023-05-19T08:58:24;14.60;48.90
11239;DHT22;5677;48.488;13.436;2023-05-19T09:00:52;14.60;48.80
11239;DHT22;5677;48.488;13.436;2023-05-19T09:03:21;14.60;48.70
11239;DHT22;5677;48.488;13.436;2023-05-19T09:05:50;14.70;48.70
11239;DHT22;5677;48.488;13.436;2023-05-19T09:08:18;14.60;48.60
11239;DHT22;5677;48.488;13.436;2023-05-19T09:10:45;14.70;48.60
11239;DHT22;5677;48.488;13.436;2023-05-19T09:13:12;14.70;48.60
11239;DHT22;5677;48.488;13.436;2023-05-19T09:15:39;14.70;48.60
11239;DHT22;5677;48.488;13.436;2023-05-19T09:18:09;14.70;48.60
11239;DHT22;5677;48.488;13.436;2023-05-19T09:20:36;14.70;48.60
11239;DHT22;5677;48.488;13.436;2023-05-19T09:23:05;14.70;48.60
11239;DHT22;5677;48.488;13.436;2023-05-19T09:25:33;14.70;48.60
11239;DHT22;5677;48.488;13.436;2023-05-19T09:28:00;14.80;48.50
11239;DHT22;5677;48.488;13.436;2023-05-19T09:30:27;14.80;48.50
11239;DHT22;5677;48.488;13.436;2023-05-19T09:32:54;14.80;48.50
11239;DHT22;5677;48.488;13.436;2023-05-19T09:35:20;14.80;48.50
11239;DHT22;5677;48.488;13.436;2023-05-19T09:37:47;14.80;48.40
11239;DHT22;5677;48.488;13.436;2023-05-19T09:40:14;14.80;48.40
11239;DHT22;5677;48.488;13.436;2023-05-19T09:42:42;14.80;48.40
11239;DHT22;5677;48.488;13.436;2023-05-19T09:45:09;14.80;48.40
11239;DHT22;5677;48.488;13.436;2023-05-19T09:47:37;14.80;48.40
11239;DHT22;5677;48.488;13.436;2023-05-19T09:50:08;14.80;48.40
11239;DHT22;5677;48.488;13.436;2023-05-19T09:52:35;14.90;48.40
11239;DHT22;5677;48.488;13.436;2023-05-19T09:55:03;14.90;48.40
11239;DHT22;5677;48.488;13.436;2023-05-19T09:57:34;14.90;48.40
11239;DHT22;5677;48.488;13.436;2023-05-19T10:00:05;14.90;48.40
11239;DHT22;5677;48.488;13.436;2023-05-19T10:02:40;14.90;48.30
11239;DHT22;5677;48.488;13.436;2023-05-19T10:05:12;15.00;48.30
11239;DHT22;5677;48.488;13.436;2023-05-19T10:07:41;14.90;48.30
11239;DHT22;5677;48.488;13.436;2023-05-19T10:10:11;14.90;48.30
11239;DHT22;5677;48.488;13.436;2023-05-19T10:12:38;14.90;48.30
11239;DHT22;5677;48.488;13.436;2023-05-19T10:15:09;14.90;48.30
11239;DHT22;5677;48.488;13.436;2023-05-19T10:17:37;14.90;48.40
11239;DHT22;5677;48.488;13.436;2023-05-19T10:20:07;14.90;48.40
11239;DHT22;5677;48.488;13.436;2023-05-19T10:22:34;14.90;48.40
11239;DHT22;5677;48.488;13.436;2023-05-19T10:25:01;14.90;48.60
11239;DHT22;5677;48.488;13.436;2023-05-19T10:27:29;14.90;48.40
11239;DHT22;5677;48.488;13.436;2023-05-19T10:29:58;14.90;48.40
11239;DHT22;5677;48.488;13.436;2023-05-19T10:32:29;14.90;48.40
11239;DHT22;5677;48.488;13.436;2023-05-19T10:35:15;14.90;48.50
11239;DHT22;5677;48.488;13.436;2023-05-19T10:37:50;15.00;48.40
11239;DHT22;5677;48.488;13.436;2023-05-19T10:40:24;14.90;48.40
11239;DHT22;5677;48.488;13.436;2023-05-19T10:43:01;14.90;48.40
11239;DHT22;5677;48.488;13.436;2023-05-19T10:45:29;15.00;48.40
11239;DHT22;5677;48.488;13.436;2023-05-19T10:48:01;15.00;48.40
11239;DHT22;5677;48.488;13.436;2023-05-19T10:50:34;14.90;48.40
11239;DHT22;5677;48.488;13.436;2023-05-19T10:53:01;15.00;48.40
11239;DHT22;5677;48.488;13.436;2023-05-19T10:55:45;15.00;48.50
11239;DHT22;5677;48.488;13.436;2023-05-19T10:58:14;15.00;48.40
11239;DHT22;5677;48.488;13.436;2023-05-19T11:00:41;15.00;48.40
11239;DHT22;5677;48.488;13.436;2023-05-19T11:03:13;14.90;48.40
11239;DHT22;5677;48.488;13.436;2023-05-19T11:05:40;15.00;48.40
11239;DHT22;5677;48.488;13.436;2023-05-19T11:08:10;15.00;48.30
11239;DHT22;5677;48.488;13.436;2023-05-19T11:10:37;15.00;48.30
11239;DHT22;5677;48.488;13.436;2023-05-19T11:13:04;15.00;48.30
11239;DHT22;5677;48.488;13.436;2023-05-19T11:15:34;15.00;48.30
11239;DHT22;5677;48.488;13.436;2023-05-19T11:18:01;15.00;48.20
11239;DHT22;5677;48.488;13.436;2023-05-19T11:20:30;15.00;48.30
11239;DHT22;5677;48.488;13.436;2023-05-19T11:23:06;15.00;48.30
11239;DHT22;5677;48.488;13.436;2023-05-19T11:25:40;15.00;48.30
11239;DHT22;5677;48.488;13.436;2023-05-19T11:28:09;15.00;48.20
11239;DHT22;5677;48.488;13.436;2023-05-19T11:30:38;15.00;48.20
11239;DHT22;5677;48.488;13.436;2023-05-19T11:33:05;15.00;48.20
11239;DHT22;5677;48.488;13.436;2023-05-19T11:35:34;15.00;48.30
11239;DHT22;5677;48.488;13.436;2023-05-19T11:38:01;15.00;48.20
11239;DHT22;5677;48.488;13.436;2023-05-19T11:40:29;15.10;48.30
11239;DHT22;5677;48.488;13.436;2023-05-19T11:42:55;15.00;48.20
11239;DHT22;5677;48.488;13.436;2023-05-19T11:45:26;15.10;48.30
11239;DHT22;5677;48.488;13.436;2023-05-19T11:47:54;15.10;48.30
11239;DHT22;5677;48.488;13.436;2023-05-19T11:50:21;15.10;48.30
11239;DHT22;5677;48.488;13.436;2023-05-19T11:52:49;15.10;48.30
11239;DHT22;5677;48.488;13.436;2023-05-19T11:55:16;15.10;48.30
11239;DHT22;5677;48.488;13.436;2023-05-19T11:57:50;15.10;48.20
11239;DHT22;5677;48.488;13.436;2023-05-19T12:00:23;15.10;48.30
11239;DHT22;5677;48.488;13.436;2023-05-19T12:02:50;15.10;48.30
11239;DHT22;5677;48.488;13.436;2023-05-19T12:05:17;15.10;48.30
11239;DHT22;5677;48.488;13.436;2023-05-19T12:07:45;15.10;48.30
11239;DHT22;5677;48.488;13.436;2023-05-19T12:10:15;15.10;48.30
11239;DHT22;5677;48.488;13.436;2023-05-19T12:12:42;15.10;48.30
11239;DHT22;5677;48.488;13.436;2023-05-19T12:15:10;15.10;48.30
11239;DHT22;5677;48.488;13.436;2023-05-19T12:17:37;15.10;48.30
11239;DHT22;5677;48.488;13.436;2023-05-19T12:20:05;15.10;48.30
11239;DHT22;5677;48.488;13.436;2023-05-19T12:22:32;15.10;48.30
11239;DHT22;5677;48.488;13.436;2023-05-19T12:24:59;15.10;48.30
11239;DHT22;5677;48.488;13.436;2023-05-19T12:27:28;15.10;48.30
11239;DHT22;5677;48.488;13.436;2023-05-19T12:29:56;15.10;48.30
11239;DHT22;5677;48.488;13.436;2023-05-19T12:32:23;15.10;48.30
11239;DHT22;5677;48.488;13.436;2023-05-19T12:34:51;15.10;48.30
11239;DHT22;5677;48.488;13.436;2023-05-19T12:37:17;15.10;48.30
11239;DHT22;5677;48.488;13.436;2023-05-19T12:39:44;15.10;48.30
11239;DHT22;5677;48.488;13.436;2023-05-19T12:42:11;15.10;48.30
11239;DHT22;5677;48.488;13.436;2023-05-19T12:44:42;15.20;48.30
11239;DHT22;5677;48.488;13.436;2023-05-19T12:47:11;15.10;48.30
11239;DHT22;5677;48.488;13.436;2023-05-19T12:49:52;15.10;48.40
11239;DHT22;5677;48.488;13.436;2023-05-19T12:52:19;15.10;48.40
11239;DHT22;5677;48.488;13.436;2023-05-19T12:54:47;15.10;48.40
11239;DHT22;5677;48.488;13.436;2023-05-19T12:57:15;15.10;48.40
11239;DHT22;5677;48.488;13.436;2023-05-19T12:59:43;15.10;48.40
11239;DHT22;5677;48.488;13.436;2023-05-19T13:02:11;15.10;48.40
11239;DHT22;5677;48.488;13.436;2023-05-19T13:04:39;15.10;48.40
11239;DHT22;5677;48.488;13.436;2023-05-19T13:07:06;15.10;48.40
11239;DHT22;5677;48.488;13.436;2023-05-19T13:09:33;15.20;48.40
11239;DHT22;5677;48.488;13.436;2023-05-19T13:12:01;15.20;48.30
11239;DHT22;5677;48.488;13.436;2023-05-19T13:14:29;15.10;48.30
11239;DHT22;5677;48.488;13.436;2023-05-19T13:16:57;15.20;48.30
11239;DHT22;5677;48.488;13.436;2023-05-19T13:19:23;15.20;48.40
11239;DHT22;5677;48.488;13.436;2023-05-19T13:21:50;15.20;48.30
11239;DHT22;5677;48.488;13.436;2023-05-19T13:24:17;15.10;48.30
11239;DHT22;5677;48.488;13.436;2023-05-19T13:26:44;15.20;48.40
11239;DHT22;5677;48.488;13.436;2023-05-19T13:29:11;15.10;48.40
11239;DHT22;5677;48.488;13.436;2023-05-19T13:31:37;15.10;48.40
11239;DHT22;5677;48.488;13.436;2023-05-19T13:34:05;15.20;48.40
11239;DHT22;5677;48.488;13.436;2023-05-19T13:36:32;15.20;48.40
11239;DHT22;5677;48.488;13.436;2023-05-19T13:38:59;15.20;48.30
11239;DHT22;5677;48.488;13.436;2023-05-19T13:41:26;15.20;48.40
11239;DHT22;5677;48.488;13.436;2023-05-19T13:43:53;15.20;48.40
11239;DHT22;5677;48.488;13.436;2023-05-19T13:46:20;15.20;48.30
11239;DHT22;5677;48.488;13.436;2023-05-19T13:48:47;15.20;48.40
11239;DHT22;5677;48.488;13.436;2023-05-19T13:51:15;15.20;48.40
11239;DHT22;5677;48.488;13.436;2023-05-19T13:53:41;15.20;48.40
11239;DHT22;5677;48.488;13.436;2023-05-19T13:56:08;15.20;48.40
11239;DHT22;5677;48.488;13.436;2023-05-19T13:58:35;15.20;48.40
11239;DHT22;5677;48.488;13.436;2023-05-19T14:01:02;15.20;48.40
11239;DHT22;5677;48.488;13.436;2023-05-19T14:03:29;15.20;48.40
11239;DHT22;5677;48.488;13.436;2023-05-19T14:05:55;15.20;48.40
11239;DHT22;5677;48.488;13.436;2023-05-19T14:08:23;15.20;48.40
11239;DHT22;5677;48.488;13.436;2023-05-19T14:10:50;15.20;48.40
11239;DHT22;5677;48.488;13.436;2023-05-19T14:13:17;15.20;49.10
11239;DHT22;5677;48.488;13.436;2023-05-19T14:15:44;15.20;48.40
11239;DHT22;5677;48.488;13.436;2023-05-19T14:18:10;15.20;48.40
11239;DHT22;5677;48.488;13.436;2023-05-19T14:20:37;15.20;48.40
11239;DHT22;5677;48.488;13.436;2023-05-19T14:23:04;15.20;48.40
11239;DHT22;5677;48.488;13.436;2023-05-19T14:25:32;15.20;48.40
11239;DHT22;5677;48.488;13.436;2023-05-19T14:27:59;15.20;48.40
11239;DHT22;5677;48.488;13.436;2023-05-19T14:30:26;15.20;48.40
11239;DHT22;5677;48.488;13.436;2023-05-19T14:32:52;15.20;48.40
11239;DHT22;5677;48.488;13.436;2023-05-19T14:35:19;15.20;48.40
11239;DHT22;5677;48.488;13.436;2023-05-19T14:37:46;15.20;48.40
11239;DHT22;5677;48.488;13.436;2023-05-19T14:40:12;15.20;48.40
11239;DHT22;5677;48.488;13.436;2023-05-19T14:42:40;15.20;48.40
11239;DHT22;5677;48.488;13.436;2023-05-19T14:45:08;15.20;48.40
11239;DHT22;5677;48.488;13.436;2023-05-19T14:47:35;15.20;48.40
11239;DHT22;5677;48.488;13.436;2023-05-19T14:50:02;15.20;48.40
11239;DHT22;5677;48.488;13.436;2023-05-19T14:52:29;15.20;48.40
11239;DHT22;5677;48.488;13.436;2023-05-19T14:54:55;15.20;48.40
11239;DHT22;5677;48.488;13.436;2023-05-19T14:57:22;15.20;48.40
11239;DHT22;5677;48.488;13.436;2023-05-19T14:59:50;15.20;48.40
11239;DHT22;5677;48.488;13.436;2023-05-19T15:02:17;15.20;48.40
11239;DHT22;5677;48.488;13.436;2023-05-19T15:04:44;15.20;48.40
11239;DHT22;5677;48.488;13.436;2023-05-19T15:07:10;15.20;48.50
11239;DHT22;5677;48.488;13.436;2023-05-19T15:09:37;15.20;48.50
11239;DHT22;5677;48.488;13.436;2023-05-19T15:12:04;15.20;48.50
11239;DHT22;5677;48.488;13.436;2023-05-19T15:14:31;15.20;48.50
11239;DHT22;5677;48.488;13.436;2023-05-19T15:16:59;15.20;48.50
11239;DHT22;5677;48.488;13.436;2023-05-19T15:19:26;15.20;48.60
11239;DHT22;5677;48.488;13.436;2023-05-19T15:21:52;15.20;48.50
11239;DHT22;5677;48.488;13.436;2023-05-19T15:24:19;15.10;48.50
11239;DHT22;5677;48.488;13.436;2023-05-19T15:26:46;15.20;48.50
11239;DHT22;5677;48.488;13.436;2023-05-19T15:29:13;15.20;48.60
11239;DHT22;5677;48.488;13.436;2023-05-19T15:31:39;15.20;48.60
11239;DHT22;5677;48.488;13.436;2023-05-19T15:34:07;15.10;48.60